createdAt,value
2022-11-13T00:02:12.899Z,99840.97
2022-11-13T00:04:59.380Z,99838.91
2022-11-13T00:07:45.979Z,99831.69
2022-11-13T00:10:32.541Z,99838.91
2022-11-13T00:13:20.572Z,99826.84
2022-11-13T00:16:09.298Z,99828.41
2022-11-13T00:18:55.379Z,99825.97
2022-11-13T00:21:41.921Z,99829.84
2022-11-13T00:24:28.666Z,99825.84
2022-11-13T00:27:15.170Z,99826.06
2022-11-13T00:30:03.154Z,99824.13
2022-11-13T00:32:49.474Z,99825.09
2022-11-13T00:35:36.076Z,99815.25
2022-11-13T00:38:22.581Z,99808.19
2022-11-13T00:41:09.227Z,99808.28
2022-11-13T00:43:55.618Z,99814.63
2022-11-13T00:46:43.552Z,99824.78
2022-11-13T00:49:30.175Z,99817.44
2022-11-13T00:52:16.769Z,99816.03
2022-11-13T00:55:02.996Z,99816.56
2022-11-13T00:57:49.463Z,99815.72
2022-11-13T01:00:37.145Z,99811.16
2022-11-13T01:03:24.756Z,99807.56
2022-11-13T01:06:14.698Z,99801.19
2022-11-13T01:09:01.381Z,99806.00
2022-11-13T01:11:47.792Z,99796.16
2022-11-13T01:14:34.392Z,99796.06
2022-11-13T01:17:20.926Z,99791.63
2022-11-13T01:20:09.943Z,99788.53
2022-11-13T01:22:56.131Z,99798.13
2022-11-13T01:25:42.646Z,99798.94
2022-11-13T01:28:29.428Z,99802.25
2022-11-13T01:31:18.224Z,99798.91
2022-11-13T01:34:04.756Z,99793.06
2022-11-13T01:36:52.885Z,99794.94
2022-11-13T01:39:39.191Z,99791.31
2022-11-13T01:42:25.737Z,99779.81
2022-11-13T01:45:49.190Z,99776.84
2022-11-13T01:48:39.865Z,99781.03
2022-11-13T01:51:31.709Z,99778.38
2022-11-13T01:54:24.052Z,99775.19
2022-11-13T01:57:11.262Z,99767.66
2022-11-13T02:00:01.685Z,99767.03
2022-11-13T02:02:48.509Z,99766.91
2022-11-13T02:05:35.082Z,99767.47
2022-11-13T02:08:21.872Z,99751.47
2022-11-13T02:11:10.063Z,99767.91
2022-11-13T02:13:56.639Z,99770.00
2022-11-13T02:16:45.115Z,99755.63
2022-11-13T02:19:34.336Z,99761.38
2022-11-13T02:22:27.329Z,99762.06
2022-11-13T02:25:15.566Z,99761.94
2022-11-13T02:28:01.832Z,99760.53
2022-11-13T02:30:48.345Z,99757.41
2022-11-13T02:33:35.041Z,99758.31
2022-11-13T02:36:25.128Z,99764.69
2022-11-13T02:39:14.165Z,99768.69
2022-11-13T02:42:02.235Z,99760.50
2022-11-13T02:44:48.899Z,99763.50
2022-11-13T02:47:35.611Z,99752.22
2022-11-13T02:50:22.140Z,99755.66
2022-11-13T02:53:08.759Z,99748.69
2022-11-13T02:55:55.456Z,99754.41
2022-11-13T02:58:43.579Z,99754.97
2022-11-13T03:01:30.064Z,99755.97
2022-11-13T03:04:16.754Z,99757.09
2022-11-13T03:07:03.093Z,99750.69
2022-11-13T03:09:49.600Z,99753.09
2022-11-13T03:12:36.111Z,99757.97
2022-11-13T03:15:24.159Z,99763.72
2022-11-13T03:18:12.044Z,99765.81
2022-11-13T03:20:58.564Z,99768.47
2022-11-13T03:23:46.168Z,99759.63
2022-11-13T03:26:32.669Z,99766.69
2022-11-13T03:29:19.198Z,99773.22
2022-11-13T03:32:07.575Z,99779.06
2022-11-13T03:34:53.791Z,99778.50
2022-11-13T03:37:40.555Z,99782.72
2022-11-13T03:40:27.034Z,99768.69
2022-11-13T03:43:13.587Z,99783.13
2022-11-13T03:46:00.010Z,99785.13
2022-11-13T03:48:47.825Z,99778.81
2022-11-13T03:51:34.321Z,99775.75
2022-11-13T03:54:20.953Z,99781.94
2022-11-13T03:57:07.764Z,99779.84
2022-11-13T03:59:54.117Z,99781.38
2022-11-13T04:02:40.914Z,99773.09
2022-11-13T04:05:28.953Z,99777.94
2022-11-13T04:08:15.444Z,99779.72
2022-11-13T04:11:07.889Z,99786.66
2022-11-13T04:13:54.536Z,99769.34
2022-11-13T04:16:40.975Z,99776.84
2022-11-13T04:19:27.510Z,99780.59
2022-11-13T04:22:15.388Z,99778.41
2022-11-13T04:25:02.027Z,99789.09
2022-11-13T04:27:50.587Z,99769.91
2022-11-13T04:30:36.925Z,99780.28
2022-11-13T04:33:23.507Z,99781.06
2022-11-13T04:36:10.424Z,99780.59
2022-11-13T04:38:58.097Z,99781.16
2022-11-13T04:42:02.532Z,99769.34
2022-11-13T04:44:48.716Z,99777.16
2022-11-13T04:47:35.644Z,99771.66
2022-11-13T04:50:22.038Z,99773.63
2022-11-13T04:53:08.251Z,99760.94
2022-11-13T04:55:56.337Z,99769.91
2022-11-13T04:58:42.919Z,99774.75
2022-11-13T05:01:29.480Z,99776.41
2022-11-13T05:04:16.477Z,99769.56
2022-11-13T05:07:02.894Z,99763.81
2022-11-13T05:09:49.391Z,99757.75
2022-11-13T05:12:37.114Z,99759.75
2022-11-13T05:15:23.602Z,99764.38
2022-11-13T05:18:10.071Z,99761.28
2022-11-13T05:20:56.543Z,99767.66
2022-11-13T05:23:43.127Z,99760.97
2022-11-13T05:26:29.895Z,99769.91
2022-11-13T05:29:17.604Z,99767.47
2022-11-13T05:32:04.194Z,99764.03
2022-11-13T05:34:50.840Z,99763.38
2022-11-13T05:37:37.254Z,99771.03
2022-11-13T05:40:23.858Z,99764.03
2022-11-13T05:43:10.673Z,99765.25
2022-11-13T05:46:03.330Z,99766.13
2022-11-13T05:48:53.664Z,99765.50
2022-11-13T05:51:40.077Z,99761.28
2022-11-13T05:54:26.424Z,99756.09
2022-11-13T05:57:13.080Z,99754.44
2022-11-13T05:59:59.532Z,99747.84
2022-11-13T06:02:47.516Z,99754.78
2022-11-13T06:05:36.192Z,99753.13
2022-11-13T06:08:22.670Z,99746.84
2022-11-13T06:11:11.438Z,99754.44
2022-11-13T06:13:59.318Z,99757.19
2022-11-13T06:16:45.945Z,99750.91
2022-11-13T06:19:33.704Z,99755.22
2022-11-13T06:22:20.238Z,99759.75
2022-11-13T06:25:07.709Z,99757.28
2022-11-13T06:27:54.698Z,99752.56
2022-11-13T06:30:41.127Z,99760.50
2022-11-13T06:33:29.537Z,99762.47
2022-11-13T06:36:18.983Z,99756.06
2022-11-13T06:39:08.558Z,99760.16
2022-11-13T06:41:55.207Z,99758.88
2022-11-13T06:44:41.697Z,99749.03
2022-11-13T06:47:29.535Z,99755.31
2022-11-13T06:50:16.044Z,99754.22
2022-11-13T06:53:04.055Z,99749.59
2022-11-13T06:55:52.071Z,99757.91
2022-11-13T06:58:38.941Z,99758.47
2022-11-13T07:01:27.470Z,99758.50
2022-11-13T07:04:14.495Z,99760.31
2022-11-13T07:07:01.385Z,99751.00
2022-11-13T07:09:49.144Z,99748.78
2022-11-13T07:12:35.655Z,99750.78
2022-11-13T07:15:22.137Z,99748.91
2022-11-13T07:18:08.707Z,99751.69
2022-11-13T07:20:55.268Z,99750.50
2022-11-13T07:23:43.454Z,99749.53
2022-11-13T07:26:31.374Z,99753.03
2022-11-13T07:29:17.921Z,99755.44
2022-11-13T07:32:04.332Z,99753.75
2022-11-13T07:34:50.943Z,99755.50
2022-11-13T07:37:37.461Z,99747.59
2022-11-13T07:40:24.064Z,99749.38
2022-11-13T07:43:12.133Z,99752.44
2022-11-13T07:45:59.358Z,99764.03
2022-11-13T07:48:45.793Z,99758.19
2022-11-13T07:51:32.393Z,99758.63
2022-11-13T07:54:18.899Z,99747.84
2022-11-13T07:57:05.231Z,99762.50
2022-11-13T07:59:53.146Z,99758.22
2022-11-13T08:02:39.573Z,99758.66
2022-11-13T08:05:26.179Z,99752.56
2022-11-13T08:08:14.027Z,99755.31
2022-11-13T08:11:05.167Z,99753.00
2022-11-13T08:13:51.509Z,99756.22
2022-11-13T08:16:39.558Z,99756.31
2022-11-13T08:19:26.184Z,99757.66
2022-11-13T08:22:12.636Z,99764.47
2022-11-13T08:24:58.933Z,99758.06
2022-11-13T08:27:45.929Z,99765.16
2022-11-13T08:30:32.602Z,99767.69
2022-11-13T08:33:20.414Z,99764.03
2022-11-13T08:36:07.311Z,99762.59
2022-11-13T08:38:53.464Z,99768.47
2022-11-13T08:41:39.913Z,99772.00
2022-11-13T08:44:26.636Z,99767.13
2022-11-13T08:47:13.644Z,99761.97
2022-11-13T08:50:01.462Z,99762.50
2022-11-13T08:52:47.947Z,99770.09
2022-11-13T08:55:35.290Z,99771.44
2022-11-13T08:58:21.480Z,99764.13
2022-11-13T09:01:08.193Z,99771.56
2022-11-13T09:03:54.497Z,99769.56
2022-11-13T09:06:42.390Z,99775.38
2022-11-13T09:09:28.921Z,99781.06
2022-11-13T09:12:15.639Z,99769.22
2022-11-13T09:15:02.239Z,99777.84
2022-11-13T09:17:48.844Z,99768.13
2022-11-13T09:20:35.396Z,99765.59
2022-11-13T09:23:23.326Z,99773.09
2022-11-13T09:26:09.523Z,99764.28
2022-11-13T09:28:56.362Z,99773.31
2022-11-13T09:31:42.886Z,99770.22
2022-11-13T09:34:29.983Z,99768.69
2022-11-13T09:37:17.168Z,99766.81
2022-11-13T09:40:05.223Z,99762.41
2022-11-13T09:42:52.571Z,99759.16
2022-11-13T09:45:41.534Z,99748.25
2022-11-13T09:48:34.296Z,99744.06
2022-11-13T09:51:23.754Z,99759.06
2022-11-13T09:54:15.063Z,99757.75
2022-11-13T09:57:11.561Z,99745.50
2022-11-13T10:00:02.953Z,99749.66
2022-11-13T10:03:02.634Z,99755.06
2022-11-13T10:05:57.947Z,99738.38
2022-11-13T10:08:54.711Z,99733.31
2022-11-13T10:11:47.170Z,99735.75
2022-11-13T10:14:39.046Z,99737.09
2022-11-13T10:17:32.377Z,99742.72
2022-11-13T10:20:25.195Z,99730.44
2022-11-13T10:23:17.758Z,99737.81
2022-11-13T10:26:15.376Z,99730.97
2022-11-13T10:29:06.878Z,99731.03
2022-11-13T10:31:54.533Z,99723.06
2022-11-13T10:34:42.574Z,99721.84
2022-11-13T10:37:44.285Z,99720.81
2022-11-13T10:40:32.632Z,99710.22
2022-11-13T10:43:21.521Z,99720.28
2022-11-13T10:46:08.132Z,99715.50
2022-11-13T10:48:56.134Z,99714.91
2022-11-13T10:51:42.881Z,99713.06
2022-11-13T10:54:31.836Z,99718.44
2022-11-13T10:57:29.088Z,99718.13
2022-11-13T11:00:24.956Z,99714.00
2022-11-13T11:03:16.159Z,99716.84
2022-11-13T11:06:05.721Z,99717.56
2022-11-13T11:08:52.255Z,99718.75
2022-11-13T11:11:56.517Z,99714.28
2022-11-13T11:15:00.925Z,99709.31
2022-11-13T11:17:50.371Z,99714.72
2022-11-13T11:20:44.997Z,99711.66
2022-11-13T11:23:41.383Z,99701.03
2022-11-13T11:26:33.482Z,99701.75
2022-11-13T11:29:27.298Z,99705.53
2022-11-13T11:32:20.259Z,99699.28
2022-11-13T11:35:15.628Z,99691.44
2022-11-13T11:38:09.905Z,99686.94
2022-11-13T11:41:16.215Z,99684.63
2022-11-13T11:44:11.555Z,99684.75
2022-11-13T11:46:58.033Z,99675.31
2022-11-13T11:49:45.070Z,99675.16
2022-11-13T11:52:43.673Z,99676.72
2022-11-13T11:55:57.139Z,99672.66
2022-11-13T11:59:02.059Z,99661.81
2022-11-13T12:02:14.976Z,99654.22
2022-11-13T12:05:23.944Z,99659.00
2022-11-13T12:08:19.962Z,99651.59
2022-11-13T12:11:15.522Z,99654.19
2022-11-13T12:14:14.878Z,99651.75
2022-11-13T12:17:17.499Z,99657.25
2022-11-13T12:20:15.008Z,99668.44
2022-11-13T12:23:15.849Z,99656.94
2022-11-13T12:26:05.832Z,99651.88
2022-11-13T12:29:01.703Z,99654.00
2022-11-13T12:32:03.513Z,99648.63
2022-11-13T12:34:53.359Z,99638.97
2022-11-13T12:37:48.900Z,99634.41
2022-11-13T12:40:44.442Z,99624.59
2022-11-13T12:43:57.667Z,99611.31
2022-11-13T12:46:45.191Z,99624.63
2022-11-13T12:49:35.270Z,99617.06
2022-11-13T12:52:24.585Z,99618.84
2022-11-13T12:55:29.189Z,99618.53
2022-11-13T12:58:22.129Z,99610.66
2022-11-13T13:01:18.630Z,99613.84
2022-11-13T13:04:27.906Z,99610.22
2022-11-13T13:07:31.711Z,99612.78
2022-11-13T13:10:25.399Z,99619.47
2022-11-13T13:13:23.924Z,99604.03
2022-11-13T13:16:12.128Z,99598.94
2022-11-13T13:19:08.965Z,99602.06
2022-11-13T13:21:56.426Z,99598.84
2022-11-13T13:24:44.302Z,99600.16
2022-11-13T13:27:34.068Z,99604.97
2022-11-13T13:30:22.724Z,99594.22
2022-11-13T13:33:21.934Z,99594.28
2022-11-13T13:36:20.437Z,99588.88
2022-11-13T13:39:20.437Z,99607.06
2022-11-13T13:42:28.098Z,99592.59
2022-11-13T13:45:25.773Z,99588.16
2022-11-13T13:48:14.965Z,99596.50
2022-11-13T13:51:02.104Z,99590.59
2022-11-13T13:53:50.311Z,99589.63
2022-11-13T13:56:42.590Z,99586.41
2022-11-13T13:59:34.369Z,99585.91
2022-11-13T14:02:23.282Z,99587.63
2022-11-13T14:05:24.908Z,99580.69
2022-11-13T14:08:18.565Z,99573.31
2022-11-13T14:11:18.026Z,99573.91
2022-11-13T14:14:16.974Z,99570.69
2022-11-13T14:17:05.596Z,99577.22
2022-11-13T14:19:52.735Z,99566.81
2022-11-13T14:22:39.464Z,99562.81
2022-11-13T14:25:29.119Z,99566.78
2022-11-13T14:28:17.983Z,99567.41
2022-11-13T14:31:08.079Z,99566.16
2022-11-13T14:33:56.145Z,99560.78
2022-11-13T14:36:43.732Z,99561.97
2022-11-13T14:39:33.328Z,99556.75
2022-11-13T14:42:23.792Z,99559.94
2022-11-13T14:45:19.828Z,99561.69
2022-11-13T14:48:19.733Z,99566.41
2022-11-13T14:51:24.137Z,99557.38
2022-11-13T14:54:46.853Z,99561.34
2022-11-13T14:57:36.944Z,99559.13
2022-11-13T15:00:30.002Z,99562.78
2022-11-13T15:03:16.346Z,99556.69
2022-11-13T15:06:03.029Z,99558.56
2022-11-13T15:08:55.414Z,99549.09
2022-11-13T15:11:41.902Z,99556.16
2022-11-13T15:14:28.189Z,99547.97
2022-11-13T15:17:18.530Z,99553.72
2022-11-13T15:20:09.603Z,99552.81
2022-11-13T15:22:58.251Z,99548.63
2022-11-13T15:25:45.841Z,99561.41
2022-11-13T15:28:32.324Z,99561.63
2022-11-13T15:31:21.713Z,99560.66
2022-11-13T15:34:11.145Z,99563.53
2022-11-13T15:36:57.648Z,99568.25
2022-11-13T15:39:44.235Z,99560.44
2022-11-13T15:42:35.588Z,99562.09
2022-11-13T15:45:22.104Z,99554.72
2022-11-13T15:48:10.498Z,99556.47
2022-11-13T15:50:56.895Z,99556.56
2022-11-13T15:53:43.445Z,99557.44
2022-11-13T15:56:31.076Z,99561.84
2022-11-13T15:59:19.197Z,99566.06
2022-11-13T16:02:06.383Z,99570.38
2022-11-13T16:04:57.380Z,99561.22
2022-11-13T16:07:50.556Z,99573.19
2022-11-13T16:10:44.247Z,99571.59
2022-11-13T16:13:34.528Z,99569.16
2022-11-13T16:16:24.653Z,99565.19
2022-11-13T16:19:14.171Z,99557.78
2022-11-13T16:22:00.358Z,99550.59
2022-11-13T16:24:46.924Z,99565.19
2022-11-13T16:27:34.108Z,99563.84
2022-11-13T16:30:23.085Z,99558.25
2022-11-13T16:33:11.532Z,99554.63
2022-11-13T16:35:58.473Z,99545.88
2022-11-13T16:38:45.112Z,99538.84
2022-11-13T16:41:32.789Z,99544.00
2022-11-13T16:44:19.398Z,99546.91
2022-11-13T16:47:07.281Z,99544.25
2022-11-13T16:49:55.445Z,99543.03
2022-11-13T16:52:42.453Z,99541.16
2022-11-13T16:55:28.844Z,99539.34
2022-11-13T16:58:15.512Z,99541.59
2022-11-13T17:01:01.921Z,99539.41
2022-11-13T17:03:48.445Z,99548.19
2022-11-13T17:06:37.480Z,99545.69
2022-11-13T17:09:24.571Z,99545.22
2022-11-13T17:12:21.932Z,99530.72
2022-11-13T17:15:11.001Z,99537.31
2022-11-13T17:17:58.545Z,99537.06
2022-11-13T17:20:45.381Z,99542.25
2022-11-13T17:23:34.523Z,99538.06
2022-11-13T17:26:21.344Z,99545.13
2022-11-13T17:29:07.991Z,99542.38
2022-11-13T17:31:54.481Z,99536.75
2022-11-13T17:34:43.739Z,99536.44
2022-11-13T17:37:30.405Z,99530.59
2022-11-13T17:40:21.064Z,99533.66
2022-11-13T17:43:08.758Z,99529.81
2022-11-13T17:46:01.585Z,99525.63
2022-11-13T17:48:48.648Z,99526.63
2022-11-13T17:51:35.184Z,99524.63
2022-11-13T17:54:21.738Z,99537.53
2022-11-13T17:57:10.472Z,99527.94
2022-11-13T17:59:56.964Z,99528.03
2022-11-13T18:02:43.524Z,99531.25
2022-11-13T18:05:29.963Z,99517.69
2022-11-13T18:08:16.499Z,99524.75
2022-11-13T18:11:08.259Z,99512.97
2022-11-13T18:13:57.547Z,99524.84
2022-11-13T18:16:43.729Z,99516.59
2022-11-13T18:19:30.467Z,99523.75
2022-11-13T18:22:17.164Z,99516.13
2022-11-13T18:25:04.244Z,99522.97
2022-11-13T18:27:50.559Z,99526.06
2022-11-13T18:30:40.557Z,99529.94
2022-11-13T18:33:27.682Z,99531.72
2022-11-13T18:36:15.037Z,99532.34
2022-11-13T18:39:03.267Z,99518.69
2022-11-13T18:41:50.592Z,99529.06
2022-11-13T18:44:37.481Z,99524.09
2022-11-13T18:47:25.687Z,99522.00
2022-11-13T18:50:12.300Z,99519.34
2022-11-13T18:52:58.810Z,99516.69
2022-11-13T18:55:45.168Z,99520.78
2022-11-13T18:58:32.183Z,99498.09
2022-11-13T19:01:22.612Z,99516.94
2022-11-13T19:04:27.452Z,99514.50
2022-11-13T19:07:13.802Z,99510.75
2022-11-13T19:10:00.350Z,99518.44
2022-11-13T19:12:46.877Z,99518.91
2022-11-13T19:15:34.417Z,99518.31
2022-11-13T19:18:20.869Z,99524.41
2022-11-13T19:21:10.811Z,99517.03
2022-11-13T19:23:58.536Z,99523.16
2022-11-13T19:26:46.007Z,99526.38
2022-11-13T19:29:32.870Z,99522.78
2022-11-13T19:32:19.618Z,99528.06
2022-11-13T19:35:06.746Z,99525.31
2022-11-13T19:37:59.100Z,99521.25
2022-11-13T19:40:47.489Z,99525.41
2022-11-13T19:43:34.282Z,99512.72
2022-11-13T19:46:21.800Z,99506.25
2022-11-13T19:49:10.236Z,99515.84
2022-11-13T19:51:56.924Z,99510.50
2022-11-13T19:54:45.216Z,99513.69
2022-11-13T19:57:42.078Z,99512.84
2022-11-13T20:00:31.810Z,99510.22
2022-11-13T20:03:18.751Z,99514.91
2022-11-13T20:06:06.331Z,99510.63
2022-11-13T20:08:52.994Z,99506.31
2022-11-13T20:11:40.730Z,99506.00
2022-11-13T20:14:27.304Z,99510.63
2022-11-13T20:17:14.059Z,99495.41
2022-11-13T20:20:01.071Z,99495.63
2022-11-13T20:22:47.369Z,99503.03
2022-11-13T20:25:40.687Z,99500.47
2022-11-13T20:28:29.495Z,99496.84
2022-11-13T20:31:19.690Z,99506.00
2022-11-13T20:34:06.354Z,99503.50
2022-11-13T20:36:53.339Z,99495.31
2022-11-13T20:39:41.975Z,99491.31
2022-11-13T20:42:29.295Z,99495.06
2022-11-13T20:45:17.367Z,99492.44
2022-11-13T20:48:03.989Z,99486.50
2022-11-13T20:50:50.442Z,99487.69
2022-11-13T20:53:37.306Z,99485.53
2022-11-13T20:56:25.913Z,99485.06
2022-11-13T20:59:12.065Z,99476.56
2022-11-13T21:01:59.918Z,99481.84
2022-11-13T21:04:46.547Z,99482.66
2022-11-13T21:07:32.849Z,99486.66
2022-11-13T21:10:19.848Z,99486.38
2022-11-13T21:13:06.200Z,99492.56
2022-11-13T21:15:52.884Z,99486.81
2022-11-13T21:18:40.968Z,99494.56
2022-11-13T21:21:29.049Z,99502.91
2022-11-13T21:24:15.791Z,99504.13
2022-11-13T21:27:02.286Z,99503.69
2022-11-13T21:29:48.970Z,99490.75
2022-11-13T21:32:35.378Z,99495.28
2022-11-13T21:35:23.233Z,99496.28
2022-11-13T21:38:09.856Z,99487.59
2022-11-13T21:41:14.387Z,99489.16
2022-11-13T21:44:03.364Z,99488.03
2022-11-13T21:46:50.026Z,99487.56
2022-11-13T21:49:36.722Z,99489.56
2022-11-13T21:52:24.541Z,99487.56
2022-11-13T21:55:12.023Z,99484.59
2022-11-13T21:57:58.888Z,99490.75
2022-11-13T22:00:45.756Z,99481.19
2022-11-13T22:03:32.520Z,99473.41
2022-11-13T22:06:21.376Z,99470.97
2022-11-13T22:09:14.916Z,99470.75
2022-11-13T22:12:01.455Z,99465.78
2022-11-13T22:14:48.113Z,99466.78
2022-11-13T22:17:34.566Z,99454.00
2022-11-13T22:20:21.342Z,99451.13
2022-11-13T22:23:07.744Z,99454.13
2022-11-13T22:26:00.442Z,99449.03
2022-11-13T22:28:48.063Z,99449.81
2022-11-13T22:31:35.104Z,99448.50
2022-11-13T22:34:21.415Z,99448.72
2022-11-13T22:37:07.825Z,99446.50
2022-11-13T22:39:54.236Z,99433.41
2022-11-13T22:42:42.334Z,99446.50
2022-11-13T22:45:28.549Z,99434.72
2022-11-13T22:48:15.134Z,99441.66
2022-11-13T22:51:06.436Z,99446.38
2022-11-13T22:53:54.207Z,99435.50
2022-11-13T22:56:42.063Z,99427.91
2022-11-13T22:59:29.643Z,99436.94
2022-11-13T23:02:16.186Z,99437.03
2022-11-13T23:05:02.805Z,99432.28
2022-11-13T23:07:49.843Z,99432.66
2022-11-13T23:10:36.098Z,99436.38
2022-11-13T23:13:22.706Z,99429.53
2022-11-13T23:16:11.447Z,99422.81
2022-11-13T23:18:59.280Z,99423.16
2022-11-13T23:21:46.774Z,99419.06
2022-11-13T23:24:33.354Z,99420.19
2022-11-13T23:27:19.686Z,99426.78
2022-11-13T23:30:07.392Z,99424.25
2022-11-13T23:32:55.424Z,99417.44
2022-11-13T23:35:42.709Z,99421.28
2022-11-13T23:38:29.355Z,99427.78
2022-11-13T23:41:16.164Z,99426.88
2022-11-13T23:44:08.879Z,99433.97
2022-11-13T23:46:55.590Z,99442.91
2022-11-13T23:49:43.536Z,99428.22
2022-11-13T23:52:30.123Z,99423.84
2022-11-13T23:55:17.206Z,99424.56
2022-11-13T23:58:05.516Z,99420.06
